Etusivu
METAR-TAF:

METAR-TAF

Lentoasemat :

Henri Coandăn lentoasema

Bukarest, Romania

Leveyspiiri: 44-33N, Pituuspiiri: 026-06E, korkeus merenpinnasta: 95 m

Tämänhetkinen sää

Tämä raportti tehtiin 16 minuuttia sitten, kello 21.30 UTC
Tuuli 3 kn lännestä/luoteesta, vaihdellen lännen ja luoteen välillä
Lämpötila 11°C
Kosteus 66%
Ilmanpaine 1023 hPa
Näkyvyys 10 km tai enemmän

METAR: LROP 162130Z AUTO 29003KT 260V320 9999 NCD 11/05 Q1023 NOSIG

Aika: 00:46 (21:46 UTC)

Sääennuste

Tämä raportti tehtiin 4 tuntia ja 32 minuuttia sitten, kello 17.14 UTC
Ennuste voimassa 16. päivästä klo 18 UTC - 17. päivään klo 18 UTC
Tuuli 4 kn eri suunnista
Näkyvyys 10 km tai enemmän
ei pilviä alle 1500 m:ssä eikä cumulonimbus-pilviä
Tulossa
17. päivästä klo 04 UTC - 17. päivään klo 06 UTC
Tuuli 10 kn idästä/koillisesta

TAF: LROP 161714Z 1618/1718 VRB04KT CAVOK BECMG 1704/1706 06010KT

Säähavainnot ja -ennusteet yli 4000 lentoasemalta (METAR- ja TAF-raportit).

Käytössä olevat sääasemat on merkitty karttaan keltaisilla ja punaisilla pisteillä.

Aseta hiiri pisteen päälle nähdäksesi sääaseman nimen.

Klikkaa sitten nähdäksesi säähavainnot ja -ennusteet.

Kartan vaihtaminen: klikkaa mustalla rastilla varustettuja vihreitä pisteitä, niin voit zoomata sisään; viivalla varustettua vihreää pistettä, niin voit zoomata ulos tai vihreitä nuolia, niin pääset viereisille kartoille.


METAR-TAF: